createdAt,value
2018-08-25T00:01:38.366Z,98118.34
2018-08-25T00:04:11.293Z,98120.62
2018-08-25T00:06:43.580Z,98116.45
2018-08-25T00:09:17.165Z,98118.16
2018-08-25T00:11:49.963Z,98123.81
2018-08-25T00:14:22.540Z,98129.94
2018-08-25T00:16:54.954Z,98132.92
2018-08-25T00:19:26.411Z,98130.66
2018-08-25T00:22:00.121Z,98127.98
2018-08-25T00:24:32.807Z,98135.47
2018-08-25T00:27:05.576Z,98128.99
2018-08-25T00:29:37.995Z,98133.64
2018-08-25T00:32:10.819Z,98136.30
2018-08-25T00:34:42.285Z,98133.31
2018-08-25T00:37:15.527Z,98133.48
2018-08-25T00:39:48.678Z,98135.33
2018-08-25T00:42:22.254Z,98141.66
2018-08-25T00:44:54.170Z,98144.14
2018-08-25T00:47:27.460Z,98146.33
2018-08-25T00:49:59.230Z,98152.98
2018-08-25T00:52:31.094Z,98151.66
2018-08-25T00:55:02.782Z,98154.97
2018-08-25T00:57:37.431Z,98160.97
2018-08-25T01:00:12.858Z,98162.63
2018-08-25T01:02:45.663Z,98167.33
2018-08-25T01:05:17.285Z,98166.00
2018-08-25T01:07:48.972Z,98160.35
2018-08-25T01:10:21.464Z,98172.33
2018-08-25T01:12:53.252Z,98173.16
2018-08-25T01:15:24.711Z,98178.16
2018-08-25T01:17:56.519Z,98172.00
2018-08-25T01:20:30.023Z,98176.66
2018-08-25T01:23:02.844Z,98184.81
2018-08-25T01:25:36.810Z,98186.83
2018-08-25T01:28:08.303Z,98187.65
2018-08-25T01:30:39.835Z,98190.48
2018-08-25T01:33:14.320Z,98191.32
2018-08-25T01:35:45.903Z,98198.98
2018-08-25T01:38:20.525Z,98193.03
2018-08-25T01:40:52.402Z,98200.81
2018-08-25T01:43:24.293Z,98205.30
2018-08-25T01:45:56.001Z,98205.84
2018-08-25T01:48:30.413Z,98207.67
2018-08-25T01:51:02.166Z,98216.48
2018-08-25T01:53:33.978Z,98222.61
2018-08-25T01:56:05.641Z,98221.28
2018-08-25T01:58:37.505Z,98222.31
2018-08-25T02:01:13.160Z,98228.97
2018-08-25T02:03:45.133Z,98225.15
2018-08-25T02:06:16.769Z,98221.33
2018-08-25T02:08:48.541Z,98231.15
2018-08-25T02:11:20.412Z,98235.47
2018-08-25T02:13:51.897Z,98226.83
2018-08-25T02:16:23.767Z,98229.99
2018-08-25T02:18:55.527Z,98234.16
2018-08-25T02:21:27.383Z,98229.66
2018-08-25T02:24:00.335Z,98229.22
2018-08-25T02:26:31.880Z,98234.69
2018-08-25T02:29:04.858Z,98233.98
2018-08-25T02:31:36.489Z,98242.35
2018-08-25T02:34:08.176Z,98236.82
2018-08-25T02:36:39.864Z,98238.69
2018-08-25T02:39:14.198Z,98234.36
2018-08-25T02:41:45.940Z,98239.19
2018-08-25T02:44:18.371Z,98238.03
2018-08-25T02:46:50.113Z,98236.38
2018-08-25T02:49:21.849Z,98237.05
2018-08-25T02:51:53.743Z,98234.71
2018-08-25T02:54:25.656Z,98230.22
2018-08-25T02:56:57.432Z,98231.72
2018-08-25T02:59:28.958Z,98230.72
2018-08-25T03:02:00.791Z,98237.38
2018-08-25T03:04:32.665Z,98236.38
2018-08-25T03:07:04.871Z,98239.20
2018-08-25T03:09:36.590Z,98239.38
2018-08-25T03:12:08.695Z,98244.70
2018-08-25T03:14:40.675Z,98250.23
2018-08-25T03:17:11.860Z,98250.73
2018-08-25T03:19:43.212Z,98250.02
2018-08-25T03:22:14.697Z,98257.38
2018-08-25T03:24:47.072Z,98254.02
2018-08-25T03:27:18.721Z,98263.33
2018-08-25T03:29:50.691Z,98267.83
2018-08-25T03:32:22.111Z,98265.70
2018-08-25T03:34:54.008Z,98269.69
2018-08-25T03:37:25.818Z,98268.03
2018-08-25T03:39:57.671Z,98266.20
2018-08-25T03:42:29.114Z,98270.69
2018-08-25T03:45:01.009Z,98278.34
2018-08-25T03:47:32.911Z,98276.02
2018-08-25T03:50:04.865Z,98275.02
2018-08-25T03:52:36.794Z,98277.67
2018-08-25T03:55:08.515Z,98276.84
2018-08-25T03:57:40.022Z,98279.01
2018-08-25T04:00:12.005Z,98286.16
2018-08-25T04:02:45.789Z,98282.67
2018-08-25T04:05:17.346Z,98279.17
2018-08-25T04:07:49.052Z,98283.00
2018-08-25T04:10:22.266Z,98287.61
2018-08-25T04:12:54.019Z,98287.28
2018-08-25T04:15:25.892Z,98288.12
2018-08-25T04:17:57.976Z,98287.28
2018-08-25T04:20:31.475Z,98291.61
2018-08-25T04:23:05.472Z,98300.92
2018-08-25T04:25:40.186Z,98296.43
2018-08-25T04:28:11.826Z,98300.30
2018-08-25T04:30:43.981Z,98307.91
2018-08-25T04:33:16.575Z,98298.09
2018-08-25T04:35:50.146Z,98297.77
2018-08-25T04:38:21.740Z,98301.58
2018-08-25T04:40:53.369Z,98306.08
2018-08-25T04:43:24.648Z,98301.25
2018-08-25T04:45:58.108Z,98309.23
2018-08-25T04:48:29.826Z,98313.40
2018-08-25T04:51:03.822Z,98318.55
2018-08-25T04:53:37.287Z,98313.56
2018-08-25T04:56:09.723Z,98312.23
2018-08-25T04:58:41.798Z,98313.39
2018-08-25T05:01:14.403Z,98309.63
2018-08-25T05:03:47.174Z,98311.33
2018-08-25T05:06:18.948Z,98312.07
2018-08-25T05:08:52.135Z,98310.23
2018-08-25T05:11:23.923Z,98313.73
2018-08-25T05:13:55.585Z,98315.22
2018-08-25T05:16:30.248Z,98312.56
2018-08-25T05:19:04.280Z,98310.22
2018-08-25T05:21:37.778Z,98303.57
2018-08-25T05:24:10.345Z,98297.92
2018-08-25T05:26:42.913Z,98303.57
2018-08-25T05:29:15.995Z,98298.58
2018-08-25T05:31:50.038Z,98305.91
2018-08-25T05:34:24.850Z,98295.42
2018-08-25T05:36:56.534Z,98299.91
2018-08-25T05:39:28.114Z,98296.03
2018-08-25T05:42:01.253Z,98300.36
2018-08-25T05:44:33.517Z,98301.84
2018-08-25T05:47:06.189Z,98293.20
2018-08-25T05:49:38.787Z,98292.20
2018-08-25T05:52:10.630Z,98290.37
2018-08-25T05:54:42.384Z,98292.53
2018-08-25T05:57:14.854Z,98286.55
2018-08-25T05:59:47.005Z,98287.53
2018-08-25T06:02:20.378Z,98286.20
2018-08-25T06:04:52.679Z,98285.55
2018-08-25T06:07:24.787Z,98288.71
2018-08-25T06:09:57.072Z,98288.36
2018-08-25T06:12:29.498Z,98281.70
2018-08-25T06:15:01.201Z,98277.18
2018-08-25T06:17:33.842Z,98277.23
2018-08-25T06:20:05.781Z,98273.52
2018-08-25T06:22:37.560Z,98266.53
2018-08-25T06:25:10.000Z,98267.52
2018-08-25T06:27:42.075Z,98265.69
2018-08-25T06:30:13.827Z,98267.34
2018-08-25T06:32:45.824Z,98263.68
2018-08-25T06:35:17.257Z,98268.00
2018-08-25T06:37:48.907Z,98258.15
2018-08-25T06:40:20.524Z,98255.81
2018-08-25T06:42:52.072Z,98247.83
2018-08-25T06:45:26.610Z,98257.47
2018-08-25T06:47:58.285Z,98245.16
2018-08-25T06:50:29.992Z,98243.50
2018-08-25T06:53:01.927Z,98244.66
2018-08-25T06:55:33.553Z,98247.15
2018-08-25T06:58:05.314Z,98239.98
2018-08-25T07:00:37.440Z,98236.83
2018-08-25T07:03:09.299Z,98233.16
2018-08-25T07:05:41.076Z,98239.81
2018-08-25T07:08:12.683Z,98230.67
2018-08-25T07:10:44.231Z,98231.83
2018-08-25T07:13:15.849Z,98231.83
2018-08-25T07:15:47.669Z,98229.16
2018-08-25T07:18:19.862Z,98229.48
2018-08-25T07:20:51.590Z,98226.95
2018-08-25T07:23:23.206Z,98230.77
2018-08-25T07:25:55.081Z,98221.77
2018-08-25T07:28:30.991Z,98227.09
2018-08-25T07:31:02.742Z,98221.45
2018-08-25T07:33:34.755Z,98223.94
2018-08-25T07:36:06.213Z,98222.10
2018-08-25T07:38:38.186Z,98217.61
2018-08-25T07:41:10.521Z,98214.73
2018-08-25T07:43:42.232Z,98213.11
2018-08-25T07:46:14.300Z,98208.44
2018-08-25T07:48:47.927Z,98204.08
2018-08-25T07:51:22.164Z,98212.75
2018-08-25T07:53:54.753Z,98200.45
2018-08-25T07:56:27.653Z,98198.11
2018-08-25T07:59:01.007Z,98190.77
2018-08-25T08:01:33.744Z,98190.45
2018-08-25T08:04:06.674Z,98182.78
2018-08-25T08:06:38.774Z,98180.95
2018-08-25T08:09:13.323Z,98178.78
2018-08-25T08:11:47.167Z,98174.29
2018-08-25T08:14:20.593Z,98175.12
2018-08-25T08:16:54.405Z,98164.47
2018-08-25T08:19:28.029Z,98172.06
2018-08-25T08:22:01.251Z,98166.45
2018-08-25T08:24:35.797Z,98171.39
2018-08-25T08:27:08.537Z,98167.06
2018-08-25T08:29:42.877Z,98163.39
2018-08-25T08:32:15.315Z,98163.72
2018-08-25T08:34:48.146Z,98160.05
2018-08-25T08:37:20.478Z,98151.05
2018-08-25T08:39:52.900Z,98152.71
2018-08-25T08:42:25.230Z,98145.02
2018-08-25T08:44:58.189Z,98142.67
2018-08-25T08:47:31.310Z,98140.52
2018-08-25T08:50:03.791Z,98141.99
2018-08-25T08:52:36.343Z,98135.33
2018-08-25T08:55:10.140Z,98126.33
2018-08-25T08:57:44.281Z,98125.94
2018-08-25T09:00:16.302Z,98121.66
2018-08-25T09:02:48.622Z,98122.27
2018-08-25T09:05:20.557Z,98123.92
2018-08-25T09:07:52.417Z,98114.61
2018-08-25T09:10:24.796Z,98108.59
2018-08-25T09:12:57.100Z,98112.91
2018-08-25T09:15:29.925Z,98107.58
2018-08-25T09:18:02.430Z,98104.92
2018-08-25T09:20:35.032Z,98106.58
2018-08-25T09:23:08.253Z,98100.71
2018-08-25T09:25:40.488Z,98103.70
2018-08-25T09:28:12.341Z,98098.88
2018-08-25T09:30:44.814Z,98097.69
2018-08-25T09:33:16.867Z,98090.16
2018-08-25T09:35:50.221Z,98083.68
2018-08-25T09:38:22.249Z,98088.50
2018-08-25T09:40:54.282Z,98082.45
2018-08-25T09:43:26.827Z,98083.10
2018-08-25T09:45:58.997Z,98081.13
2018-08-25T09:48:30.735Z,98079.42
2018-08-25T09:51:02.613Z,98078.09
2018-08-25T09:53:34.549Z,98079.35
2018-08-25T09:56:06.503Z,98079.56
2018-08-25T09:58:38.926Z,98077.41
2018-08-25T10:01:15.851Z,98076.40
2018-08-25T10:03:47.798Z,98073.84
2018-08-25T10:06:19.796Z,98068.52
2018-08-25T10:10:15.525Z,98072.00
2018-08-25T10:12:52.574Z,98067.83
2018-08-25T10:15:24.351Z,98059.83
2018-08-25T10:17:56.217Z,98057.99
2018-08-25T10:20:27.747Z,98061.30
2018-08-25T10:22:59.382Z,98058.64
2018-08-25T10:25:31.165Z,98056.58
2018-08-25T10:28:03.699Z,98046.94
2018-08-25T10:30:35.492Z,98043.26
2018-08-25T10:33:09.695Z,98042.94
2018-08-25T10:35:41.594Z,98042.25
2018-08-25T10:38:13.561Z,98041.23
2018-08-25T10:40:46.019Z,98039.58
2018-08-25T10:43:17.927Z,98050.56
2018-08-25T10:45:50.083Z,98059.97
2018-08-25T10:48:22.291Z,98056.58
2018-08-25T10:50:54.222Z,98047.90
2018-08-25T10:53:26.100Z,98036.73
2018-08-25T10:55:58.537Z,98046.73
2018-08-25T10:58:30.187Z,98043.56
2018-08-25T11:01:01.944Z,98046.52
2018-08-25T11:03:33.384Z,98032.19
2018-08-25T11:06:05.350Z,98029.94
2018-08-25T11:08:37.393Z,98033.56
2018-08-25T11:11:09.291Z,98032.41
2018-08-25T11:13:40.948Z,98027.17
2018-08-25T11:16:12.662Z,98028.19
2018-08-25T11:18:44.999Z,98044.17
2018-08-25T11:21:17.046Z,98031.86
2018-08-25T11:23:49.112Z,98036.69
2018-08-25T11:26:21.581Z,98031.06
2018-08-25T11:28:53.441Z,98038.23
2018-08-25T11:31:24.997Z,98036.08
2018-08-25T11:33:57.911Z,98039.75
2018-08-25T11:36:29.715Z,98037.56
2018-08-25T11:39:02.157Z,98037.91
2018-08-25T11:41:34.011Z,98031.25
2018-08-25T11:44:05.845Z,98029.56
2018-08-25T11:46:37.613Z,98031.41
2018-08-25T11:49:09.227Z,98035.91
2018-08-25T11:51:40.727Z,98034.58
2018-08-25T11:54:12.574Z,98030.25
2018-08-25T11:56:44.040Z,98028.42
2018-08-25T11:59:17.218Z,98027.59
2018-08-25T12:01:50.064Z,98030.58
2018-08-25T12:04:21.921Z,98036.23
2018-08-25T12:06:53.670Z,98032.23
2018-08-25T12:09:25.838Z,98030.90
2018-08-25T12:11:58.821Z,98029.92
2018-08-25T12:14:31.093Z,98027.25
2018-08-25T12:17:03.192Z,98025.41
2018-08-25T12:19:35.220Z,98022.91
2018-08-25T12:22:06.868Z,98020.92
2018-08-25T12:24:38.707Z,98013.58
2018-08-25T12:27:10.689Z,98021.09
2018-08-25T12:29:43.478Z,98020.23
2018-08-25T12:32:15.372Z,98022.43
2018-08-25T12:34:48.565Z,98019.58
2018-08-25T12:37:20.428Z,98031.58
2018-08-25T12:39:53.154Z,98025.41
2018-08-25T12:42:25.220Z,98032.41
2018-08-25T12:44:57.917Z,98028.08
2018-08-25T12:47:30.003Z,98032.91
2018-08-25T12:50:02.776Z,98029.56
2018-08-25T12:52:34.579Z,98027.59
2018-08-25T12:55:08.352Z,98029.56
2018-08-25T12:57:40.525Z,98043.56
2018-08-25T13:00:13.474Z,98042.73
2018-08-25T13:02:47.672Z,98050.52
2018-08-25T13:05:21.538Z,98054.73
2018-08-25T13:07:53.584Z,98053.91
2018-08-25T13:10:25.663Z,98054.23
2018-08-25T13:12:57.776Z,98062.22
2018-08-25T13:15:30.331Z,98062.52
2018-08-25T13:18:02.789Z,98071.16
2018-08-25T13:20:34.981Z,98069.82
2018-08-25T13:23:06.962Z,98070.14
2018-08-25T13:25:38.536Z,98072.80
2018-08-25T13:28:10.079Z,98076.12
2018-08-25T13:30:42.063Z,98075.98
2018-08-25T13:33:14.065Z,98081.13
2018-08-25T13:35:47.952Z,98085.45
2018-08-25T13:38:19.817Z,98096.43
2018-08-25T13:40:51.540Z,98104.21
2018-08-25T13:43:23.950Z,98109.76
2018-08-25T13:45:55.891Z,98111.09
2018-08-25T13:48:28.121Z,98115.59
2018-08-25T13:51:00.574Z,98113.44
2018-08-25T13:53:33.660Z,98116.10
2018-08-25T13:56:05.607Z,98119.27
2018-08-25T13:58:37.730Z,98114.95
2018-08-25T14:01:11.117Z,98117.61
2018-08-25T14:03:43.587Z,98119.45
2018-08-25T14:06:16.028Z,98124.14
2018-08-25T14:08:47.788Z,98123.95
2018-08-25T14:11:20.233Z,98125.80
2018-08-25T14:13:53.180Z,98115.36
2018-08-25T14:16:25.419Z,98119.53
2018-08-25T14:18:57.334Z,98117.16
2018-08-25T14:21:29.614Z,98114.70
2018-08-25T14:24:01.527Z,98118.48
2018-08-25T14:26:33.271Z,98122.19
2018-08-25T14:29:05.679Z,98118.48
2018-08-25T14:31:38.689Z,98122.19
2018-08-25T14:34:11.167Z,98119.53
2018-08-25T14:36:45.550Z,98129.36
2018-08-25T14:39:17.448Z,98133.05
2018-08-25T14:41:50.410Z,98127.53
2018-08-25T14:44:22.505Z,98143.19
2018-08-25T14:46:53.966Z,98142.18
2018-08-25T14:49:26.237Z,98146.47
2018-08-25T14:51:58.484Z,98148.34
2018-08-25T14:54:30.289Z,98148.34
2018-08-25T14:57:02.450Z,98150.47
2018-08-25T14:59:35.195Z,98154.79
2018-08-25T15:02:07.397Z,98156.63
2018-08-25T15:04:39.300Z,98152.45
2018-08-25T15:07:11.493Z,98161.67
2018-08-25T15:09:43.741Z,98159.11
2018-08-25T15:12:15.595Z,98163.61
2018-08-25T15:14:47.842Z,98168.44
2018-08-25T15:17:19.994Z,98174.78
2018-08-25T15:19:51.841Z,98181.27
2018-08-25T15:22:23.622Z,98178.09
2018-08-25T15:24:55.503Z,98175.10
2018-08-25T15:27:27.581Z,98178.09
2018-08-25T15:29:59.278Z,98179.75
2018-08-25T15:32:32.127Z,98187.24
2018-08-25T15:35:04.638Z,98188.07
2018-08-25T15:37:37.970Z,98185.73
2018-08-25T15:40:10.517Z,98187.89
2018-08-25T15:42:42.509Z,98192.07
2018-08-25T15:45:14.642Z,98196.39
2018-08-25T15:47:46.409Z,98203.34
2018-08-25T15:50:18.705Z,98197.52
2018-08-25T15:52:50.906Z,98203.99
2018-08-25T15:55:22.773Z,98201.72
2018-08-25T15:57:54.822Z,98201.00
2018-08-25T16:00:26.960Z,98202.34
2018-08-25T16:03:00.024Z,98207.67
2018-08-25T16:05:32.130Z,98196.17
2018-08-25T16:08:04.757Z,98197.83
2018-08-25T16:10:36.868Z,98202.84
2018-08-25T16:13:10.476Z,98197.00
2018-08-25T16:15:42.474Z,98201.33
2018-08-25T16:18:14.765Z,98205.33
2018-08-25T16:20:46.739Z,98200.00
2018-08-25T16:23:18.696Z,98196.83
2018-08-25T16:25:50.729Z,98200.82
2018-08-25T16:28:22.676Z,98186.16
2018-08-25T16:30:54.271Z,98186.67
2018-08-25T16:33:26.313Z,98189.98
2018-08-25T16:35:57.876Z,98184.33
2018-08-25T16:38:30.160Z,98185.66
2018-08-25T16:41:01.923Z,98175.68
2018-08-25T16:43:33.693Z,98183.50
2018-08-25T16:46:05.254Z,98180.33
2018-08-25T16:48:37.690Z,98186.16
2018-08-25T16:51:12.449Z,98183.82
2018-08-25T16:53:44.299Z,98187.67
2018-08-25T16:56:16.359Z,98189.01
2018-08-25T16:58:48.661Z,98186.02
2018-08-25T17:01:21.239Z,98185.22
2018-08-25T17:03:53.833Z,98191.35
2018-08-25T17:06:28.595Z,98189.22
2018-08-25T17:09:03.723Z,98186.73
2018-08-25T17:11:36.301Z,98193.91
2018-08-25T17:14:09.719Z,98189.41
2018-08-25T17:16:41.602Z,98197.40
2018-08-25T17:19:18.503Z,98200.81
2018-08-25T17:21:51.326Z,98203.78
2018-08-25T17:24:25.071Z,98204.75
2018-08-25T17:26:58.297Z,98199.23
2018-08-25T17:29:30.899Z,98199.56
2018-08-25T17:32:04.032Z,98192.25
2018-08-25T17:34:36.598Z,98189.73
2018-08-25T17:37:08.586Z,98190.41
2018-08-25T17:39:42.622Z,98184.58
2018-08-25T17:42:18.894Z,98178.02
2018-08-25T17:44:51.512Z,98178.45
2018-08-25T17:47:23.992Z,98174.06
2018-08-25T17:49:56.608Z,98169.84
2018-08-25T17:52:29.711Z,98163.00
2018-08-25T17:55:02.541Z,98165.48
2018-08-25T17:57:35.426Z,98157.34
2018-08-25T18:00:09.059Z,98161.45
2018-08-25T18:02:42.224Z,98156.77
2018-08-25T18:05:15.532Z,98155.94
2018-08-25T18:07:49.278Z,98156.41
2018-08-25T18:10:23.162Z,98152.59
2018-08-25T18:12:56.223Z,98151.26
2018-08-25T18:15:32.194Z,98152.59
2018-08-25T18:18:05.218Z,98140.09
2018-08-25T18:20:38.949Z,98139.59
2018-08-25T18:23:11.963Z,98140.70
2018-08-25T18:25:45.126Z,98136.41
2018-08-25T18:28:17.841Z,98131.77
2018-08-25T18:30:49.682Z,98132.70
2018-08-25T18:33:21.370Z,98128.42
2018-08-25T18:35:53.216Z,98128.70
2018-08-25T18:38:25.030Z,98120.71
2018-08-25T18:40:58.469Z,98126.26
2018-08-25T18:43:31.749Z,98122.05
2018-08-25T18:46:04.236Z,98117.75
2018-08-25T18:48:36.054Z,98120.53
2018-08-25T18:51:07.891Z,98119.37
2018-08-25T18:53:39.719Z,98119.37
2018-08-25T18:56:12.165Z,98113.75
2018-08-25T18:58:45.804Z,98113.44
2018-08-25T19:01:17.726Z,98114.45
2018-08-25T19:03:49.943Z,98108.42
2018-08-25T19:06:22.215Z,98101.44
2018-08-25T19:08:54.261Z,98108.28
2018-08-25T19:11:26.956Z,98101.12
2018-08-25T19:14:00.630Z,98093.77
2018-08-25T19:16:33.239Z,98092.72
2018-08-25T19:19:04.838Z,98094.45
2018-08-25T19:21:37.952Z,98084.50
2018-08-25T19:24:11.256Z,98088.78
2018-08-25T19:26:44.174Z,98086.48
2018-08-25T19:29:16.493Z,98082.11
2018-08-25T19:31:49.695Z,98072.56
2018-08-25T19:34:22.281Z,98075.23
2018-08-25T19:36:54.660Z,98082.50
2018-08-25T19:39:26.568Z,98073.89
2018-08-25T19:41:59.353Z,98070.41
2018-08-25T19:44:30.787Z,98073.89
2018-08-25T19:47:02.487Z,98075.55
2018-08-25T19:49:34.090Z,98072.56
2018-08-25T19:52:06.230Z,98071.84
2018-08-25T19:54:38.123Z,98063.56
2018-08-25T19:57:10.050Z,98066.73
2018-08-25T19:59:42.237Z,98062.22
2018-08-25T20:02:13.989Z,98066.41
2018-08-25T20:04:45.826Z,98063.23
2018-08-25T20:07:17.429Z,98065.72
2018-08-25T20:09:48.725Z,98065.55
2018-08-25T20:12:20.141Z,98069.17
2018-08-25T20:14:52.386Z,98070.00
2018-08-25T20:17:24.210Z,98065.90
2018-08-25T20:19:56.117Z,98073.39
2018-08-25T20:22:28.422Z,98063.23
2018-08-25T20:25:00.247Z,98060.57
2018-08-25T20:27:31.802Z,98060.58
2018-08-25T20:30:03.332Z,98059.89
2018-08-25T20:32:35.369Z,98055.56
2018-08-25T20:35:07.323Z,98052.58
2018-08-25T20:37:39.232Z,98045.74
2018-08-25T20:40:10.940Z,98044.73
2018-08-25T20:42:44.327Z,98041.56
2018-08-25T20:45:15.899Z,98039.75
2018-08-25T20:47:48.816Z,98035.75
2018-08-25T20:50:20.199Z,98026.26
2018-08-25T20:52:52.179Z,98029.94
2018-08-25T20:55:24.681Z,98026.91
2018-08-25T20:57:56.349Z,98026.26
2018-08-25T21:00:28.290Z,98016.23
2018-08-25T21:03:00.416Z,98015.77
2018-08-25T21:05:31.807Z,98014.91
2018-08-25T21:08:03.567Z,98011.92
2018-08-25T21:10:35.497Z,98004.11
2018-08-25T21:13:07.570Z,97998.59
2018-08-25T21:15:39.298Z,97995.61
2018-08-25T21:18:11.909Z,97992.62
2018-08-25T21:20:45.110Z,97997.45
2018-08-25T21:23:18.304Z,97997.77
2018-08-25T21:25:49.748Z,97995.93
2018-08-25T21:28:22.177Z,97993.45
2018-08-25T21:30:53.963Z,97984.95
2018-08-25T21:33:26.416Z,97980.31
2018-08-25T21:35:58.089Z,97979.30
2018-08-25T21:38:30.482Z,97979.30
2018-08-25T21:41:03.164Z,97978.80
2018-08-25T21:43:36.196Z,97973.97
2018-08-25T21:46:07.778Z,97977.97
2018-08-25T21:48:39.771Z,97975.81
2018-08-25T21:51:11.774Z,97973.65
2018-08-25T21:53:44.268Z,97977.46
2018-08-25T21:56:16.315Z,97976.02
2018-08-25T21:58:48.693Z,97977.86
2018-08-25T22:01:20.596Z,97970.38
2018-08-25T22:03:52.851Z,97974.88
2018-08-25T22:06:25.358Z,97973.04
2018-08-25T22:08:57.343Z,97967.89
2018-08-25T22:11:29.593Z,97973.04
2018-08-25T22:14:03.009Z,97979.06
2018-08-25T22:16:34.860Z,97977.03
2018-08-25T22:19:06.934Z,97972.72
2018-08-25T22:21:38.840Z,97971.89
2018-08-25T22:24:10.723Z,97973.41
2018-08-25T22:26:42.241Z,97972.58
2018-08-25T22:29:14.348Z,97973.41
2018-08-25T22:31:46.399Z,97969.59
2018-08-25T22:34:18.475Z,97970.75
2018-08-25T22:36:51.001Z,97970.42
2018-08-25T22:39:24.800Z,97975.65
2018-08-25T22:41:57.002Z,97973.81
2018-08-25T22:44:29.480Z,97977.30
2018-08-25T22:47:01.946Z,97979.43
2018-08-25T22:49:33.632Z,97985.80
2018-08-25T22:52:07.152Z,97987.13
2018-08-25T22:54:39.952Z,97993.98
2018-08-25T22:57:12.228Z,97987.83
2018-08-25T22:59:44.733Z,97994.48
2018-08-25T23:02:16.864Z,97993.16
2018-08-25T23:04:49.825Z,97997.84
2018-08-25T23:07:21.737Z,97998.48
2018-08-25T23:09:54.811Z,97998.48
2018-08-25T23:12:27.872Z,98002.16
2018-08-25T23:15:00.939Z,98005.33
2018-08-25T23:17:33.701Z,98001.14
2018-08-25T23:20:05.596Z,98011.16
2018-08-25T23:22:38.967Z,98003.17
2018-08-25T23:25:11.002Z,98009.83
2018-08-25T23:27:43.045Z,98006.84
2018-08-25T23:30:15.740Z,98011.84
2018-08-25T23:32:48.236Z,98017.00
2018-08-25T23:35:21.371Z,98009.50
2018-08-25T23:37:55.759Z,98008.89
2018-08-25T23:40:28.506Z,98017.90
2018-08-25T23:43:00.450Z,98013.90
2018-08-25T23:45:33.018Z,98023.41
2018-08-25T23:48:04.769Z,98026.08
2018-08-25T23:50:37.942Z,98032.23
2018-08-25T23:53:10.569Z,98029.56
2018-08-25T23:55:44.146Z,98030.90
2018-08-25T23:58:17.111Z,98022.77
